This is the latest recevied weather packets stored in our database for station/object W2BP-13. If no packets are shown the sender has not sent any weather packets the latest 10 day(s).
| Time | Temp. | Humidity | Pressure | Rain* | Wind** | Luminosity | Snow |
|---|---|---|---|---|---|---|---|
| 1777866032 | 22.78° C | 34% | 1011.9 hPa | 0 mm | - | - | - |
| 1777865132 | 24.44° C | 28% | 1011.7 hPa | 0 mm | - | - | - |
| 1777864233 | 25° C | 28% | 1011.7 hPa | 0 mm | - | - | - |
| 1777863333 | 25° C | 26% | 1011.7 hPa | 0 mm | - | - | - |
| 1777862432 | 26.67° C | 25% | 1011.7 hPa | 0 mm | - | - | - |
| 1777861532 | 27.78° C | 23% | 1011.8 hPa | 0 mm | - | - | - |
| 1777860632 | 28.89° C | 21% | 1011.8 hPa | 0 mm | - | - | - |
| 1777859732 | 28.89° C | 21% | 1012.1 hPa | 0 mm | - | - | - |
| 1777858832 | 30° C | 20% | 1012.1 hPa | 0 mm | - | - | - |
| 1777857932 | 30° C | 18% | 1012.4 hPa | 0 mm | - | - | - |
| 1777857032 | 30.56° C | 19% | 1012.8 hPa | 0 mm | - | - | - |
| 1777856133 | 30.56° C | 19% | 1013 hPa | 0 mm | - | - | - |
| 1777855233 | 30.56° C | 21% | 1013 hPa | 0 mm | - | - | - |
| 1777854333 | 31.67° C | 18% | 1013 hPa | 0 mm | - | - | - |
| 1777853433 | 31.11° C | 19% | 1013.2 hPa | 0 mm | - | - | - |
| 1777852532 | 31.11° C | 20% | 1013.3 hPa | 0 mm | - | - | - |
| 1777851632 | 31.11° C | 21% | 1013.7 hPa | 0 mm | - | - | - |
| 1777850732 | 31.67° C | 20% | 1013.6 hPa | 0 mm | - | - | - |
| 1777849833 | 31.11° C | 21% | 1013.8 hPa | 0 mm | - | - | - |
| 1777848933 | 31.11° C | 21% | 1013.9 hPa | 0 mm | - | - | - |
| 1777848032 | 31.67° C | 18% | 1014 hPa | 0 mm | - | - | - |
| 1777847133 | 31.67° C | 18% | 1014.4 hPa | 0 mm | - | - | - |
| 1777846233 | 31.11° C | 19% | 1014.5 hPa | 0 mm | - | - | - |
| 1777845333 | 31.67° C | 20% | 1014.7 hPa | 0 mm | - | - | - |
| 1777844433 | 31.67° C | 20% | 1015 hPa | 0 mm | - | - | - |
* Rain latest hour (hover to see other rain measurements)
** Current wind speed in m/s (hover to see current wind gust speed)